Time;durP1;ratioP1;P1;durP2;ratioP2;P2;SDS_P1;SDS_P2;PMS_P1;PMS_P2;Temp;Humidity;BMP_temperature;BMP_pressure;BME280_temperature;BME280_humidity;BME280_pressure;Samples;Min_cycle;Max_cycle;Signal;HPM_P1;HPM_P2
2023/10/23 00:01:58;;;;;;;2.70;1.38;;;;;;;6.97;100.00;97137.22;4997904;28;20422;-82
2023/10/23 00:04:25;;;;;;;2.72;1.52;;;;;;;6.92;100.00;97145.00;4997079;28;20403;-82
2023/10/23 00:06:51;;;;;;;1.50;1.40;;;;;;;6.89;100.00;97141.00;4997781;28;20477;-82
2023/10/23 00:09:18;;;;;;;3.00;1.67;;;;;;;6.85;100.00;97142.50;4997452;28;20406;-83
2023/10/23 00:11:44;;;;;;;5.05;1.80;;;;;;;6.83;100.00;97147.22;4997867;28;20403;-82
2023/10/23 00:14:10;;;;;;;3.95;1.50;;;;;;;6.81;100.00;97143.19;4998797;28;20441;-82
2023/10/23 00:16:36;;;;;;;1.95;1.45;;;;;;;6.79;100.00;97142.63;4999406;28;20429;-82
2023/10/23 00:19:02;;;;;;;2.40;1.60;;;;;;;6.78;100.00;97149.72;4997192;28;20860;-82
2023/10/23 00:21:30;;;;;;;2.50;1.92;;;;;;;6.77;100.00;97152.56;4997856;28;20775;-83
2023/10/23 00:23:56;;;;;;;3.13;1.67;;;;;;;6.75;100.00;97150.19;4997184;28;20453;-82
2023/10/23 00:26:22;;;;;;;1.88;1.40;;;;;;;6.74;100.00;97155.69;5012748;28;20742;-81
2023/10/23 00:28:51;;;;;;;2.90;1.40;;;;;;;6.73;100.00;97156.72;5017407;28;20432;-81
2023/10/23 00:31:17;;;;;;;4.47;1.80;;;;;;;6.72;100.00;97155.91;5019781;28;20459;-82
2023/10/23 00:33:44;;;;;;;2.17;1.40;;;;;;;6.72;100.00;97163.81;5005057;28;20406;-81
2023/10/23 00:36:10;;;;;;;3.10;2.00;;;;;;;6.72;100.00;97163.00;5001305;28;20556;-82
2023/10/23 00:38:37;;;;;;;2.83;1.45;;;;;;;6.73;100.00;97157.50;5001535;28;20426;-81
2023/10/23 00:41:03;;;;;;;2.67;1.90;;;;;;;6.72;100.00;97158.53;5002667;28;20418;-82
2023/10/23 00:43:29;;;;;;;2.55;1.50;;;;;;;6.70;100.00;97165.06;5001061;28;20398;-83
2023/10/23 00:45:57;;;;;;;1.60;1.50;;;;;;;6.68;100.00;97162.69;5000750;28;20856;-83
2023/10/23 00:48:25;;;;;;;2.38;1.40;;;;;;;6.68;100.00;97164.50;5001146;28;20489;-82
2023/10/23 00:50:54;;;;;;;1.75;1.35;;;;;;;6.66;100.00;97158.69;4984203;28;20609;-83
2023/10/23 00:53:25;;;;;;;1.58;1.33;;;;;;;6.63;100.00;97157.28;4984947;28;20827;-80
2023/10/23 00:55:54;;;;;;;2.15;1.60;;;;;;;6.62;100.00;97155.69;5001002;28;20899;-81
2023/10/23 00:58:23;;;;;;;1.60;1.50;;;;;;;6.61;100.00;97154.13;5001004;28;20399;-81
2023/10/23 01:00:49;;;;;;;1.77;1.55;;;;;;;6.59;100.00;97154.34;5000134;28;20427;-83
2023/10/23 01:03:15;;;;;;;2.33;1.42;;;;;;;6.60;100.00;97157.78;5001284;28;20398;-83
2023/10/23 01:05:42;;;;;;;2.25;1.40;;;;;;;6.60;100.00;97148.06;5001147;28;20421;-81
2023/10/23 01:08:08;;;;;;;1.60;1.50;;;;;;;6.61;100.00;97154.88;5001974;28;20425;-81
2023/10/23 01:10:35;;;;;;;1.85;1.40;;;;;;;6.64;100.00;97150.22;4999568;28;20410;-80
2023/10/23 01:13:06;;;;;;;1.67;1.23;;;;;;;6.64;100.00;97151.00;4999746;28;20402;-81
2023/10/23 01:15:32;;;;;;;2.22;1.70;;;;;;;6.65;100.00;97149.19;5000618;28;20394;-81
2023/10/23 01:17:59;;;;;;;2.97;1.50;;;;;;;6.65;100.00;97143.91;4999826;28;20398;-81
2023/10/23 01:20:27;;;;;;;3.05;2.00;;;;;;;6.62;100.00;97137.28;4999729;28;20468;-81
2023/10/23 01:22:55;;;;;;;2.22;1.48;;;;;;;6.60;100.00;97140.16;4999138;28;20797;-81
2023/10/23 01:25:23;;;;;;;1.70;1.60;;;;;;;6.58;100.00;97136.97;5000286;28;20395;-82
2023/10/23 01:27:49;;;;;;;3.70;1.77;;;;;;;6.58;100.00;97136.97;4999483;28;20946;-82
2023/10/23 01:30:16;;;;;;;1.73;1.52;;;;;;;6.55;100.00;97132.16;4999821;28;20413;-81
2023/10/23 01:32:42;;;;;;;2.53;1.50;;;;;;;6.55;100.00;97141.88;4999132;28;20398;-81
2023/10/23 01:35:10;;;;;;;1.73;1.40;;;;;;;6.53;100.00;97141.31;4999201;28;20413;-81
2023/10/23 01:37:36;;;;;;;2.80;1.60;;;;;;;6.51;100.00;97141.53;4999478;28;20406;-81
2023/10/23 01:40:04;;;;;;;1.50;1.40;;;;;;;6.49;100.00;97140.97;4999379;28;20402;-80
2023/10/23 01:42:31;;;;;;;1.92;1.30;;;;;;;6.48;100.00;97147.25;4998555;28;20407;-80
2023/10/23 01:44:58;;;;;;;3.50;1.63;;;;;;;6.44;100.00;97140.88;4998935;28;20613;-81
2023/10/23 01:47:24;;;;;;;1.85;1.50;;;;;;;6.41;100.00;97148.41;4998366;28;20414;-81
2023/10/23 01:49:50;;;;;;;2.15;1.33;;;;;;;6.36;100.00;97143.84;4998551;28;20399;-81
2023/10/23 01:52:17;;;;;;;2.03;1.40;;;;;;;6.34;100.00;97139.84;4998292;28;20412;-81
2023/10/23 01:54:45;;;;;;;2.38;1.50;;;;;;;6.32;100.00;97144.53;4998967;28;20414;-81
2023/10/23 01:57:12;;;;;;;1.70;1.30;;;;;;;6.31;100.00;97137.69;4999817;28;20808;-82
2023/10/23 01:59:40;;;;;;;2.53;1.50;;;;;;;6.28;100.00;97135.50;4998190;28;20398;-80
2023/10/23 02:02:06;;;;;;;3.40;1.60;;;;;;;6.25;100.00;97136.75;4998898;28;20422;-81
2023/10/23 02:04:34;;;;;;;3.45;1.70;;;;;;;6.21;100.00;97133.81;4999043;28;20410;-81
2023/10/23 02:07:00;;;;;;;2.33;1.77;;;;;;;6.20;100.00;97142.72;4998470;28;20901;-81
2023/10/23 02:09:27;;;;;;;2.10;1.60;;;;;;;6.18;100.00;97139.50;4998355;28;20429;-82
2023/10/23 02:11:54;;;;;;;3.17;1.55;;;;;;;6.16;100.00;97136.28;4998296;28;20410;-83
2023/10/23 02:14:20;;;;;;;2.15;1.73;;;;;;;6.13;100.00;97141.22;4999468;28;20409;-83
2023/10/23 02:16:47;;;;;;;2.17;1.70;;;;;;;6.10;100.00;97136.41;5006000;28;20405;-81
2023/10/23 02:19:13;;;;;;;3.17;2.10;;;;;;;6.06;100.00;97141.34;4998472;28;20403;-81
2023/10/23 02:21:39;;;;;;;2.25;1.60;;;;;;;6.05;100.00;97137.09;4998654;28;20426;-82
2023/10/23 02:24:06;;;;;;;2.45;1.80;;;;;;;6.03;100.00;97131.28;4997819;28;20403;-81
2023/10/23 02:26:32;;;;;;;2.03;1.83;;;;;;;6.01;100.00;97137.81;4998759;28;20416;-83
2023/10/23 02:29:00;;;;;;;2.60;1.80;;;;;;;5.98;100.00;97135.63;4998619;28;20403;-82
2023/10/23 02:31:26;;;;;;;2.28;1.60;;;;;;;5.96;100.00;97140.28;4998537;28;20966;-83
2023/10/23 02:33:53;;;;;;;4.23;2.00;;;;;;;5.94;100.00;97134.50;4998842;28;20470;-82
2023/10/23 02:36:20;;;;;;;1.70;1.60;;;;;;;5.91;100.00;97130.47;4998056;28;20861;-82
2023/10/23 02:38:46;;;;;;;1.70;1.60;;;;;;;5.88;100.00;97135.38;4998487;28;20725;-82
2023/10/23 02:41:12;;;;;;;3.63;1.70;;;;;;;5.87;100.00;97133.75;4997689;28;20418;-82
2023/10/23 02:43:38;;;;;;;2.88;1.73;;;;;;;5.86;100.00;97134.78;4980988;28;20417;-83
2023/10/23 02:46:04;;;;;;;2.63;1.90;;;;;;;5.84;100.00;97137.63;4998931;28;20414;-83
2023/10/23 02:48:31;;;;;;;2.15;1.67;;;;;;;5.83;100.00;97143.91;4998472;28;20398;-83
2023/10/23 02:50:58;;;;;;;1.80;1.58;;;;;;;5.81;100.00;97146.75;4999065;28;20430;-83
2023/10/23 02:53:25;;;;;;;2.63;1.70;;;;;;;5.82;100.00;97151.00;4998137;28;20410;-81
2023/10/23 02:55:51;;;;;;;1.77;1.60;;;;;;;5.82;100.00;97144.94;4998112;28;20402;-84
2023/10/23 02:58:18;;;;;;;2.08;1.80;;;;;;;5.79;100.00;97148.00;4998767;28;20416;-83
2023/10/23 03:00:44;;;;;;;1.88;1.67;;;;;;;5.76;100.00;97146.66;4997766;28;20425;-82
2023/10/23 03:03:11;;;;;;;2.10;1.70;;;;;;;5.74;100.00;97143.44;4997992;28;20398;-81
2023/10/23 03:05:37;;;;;;;1.67;1.50;;;;;;;5.72;100.00;97147.31;4997967;28;20437;-81
2023/10/23 03:08:05;;;;;;;3.20;1.90;;;;;;;5.72;100.00;97142.06;4998133;28;20420;-83
2023/10/23 03:10:33;;;;;;;1.70;1.60;;;;;;;5.69;100.00;97140.69;4999936;28;20440;-82
2023/10/23 03:12:59;;;;;;;2.60;1.80;;;;;;;5.67;100.00;97149.81;4998487;28;20406;-83
2023/10/23 03:15:25;;;;;;;1.60;1.50;;;;;;;5.63;100.00;97141.59;4997701;28;20481;-82
2023/10/23 03:17:52;;;;;;;1.70;1.53;;;;;;;5.62;100.00;97141.81;4997800;28;20403;-83
2023/10/23 03:20:18;;;;;;;1.70;1.60;;;;;;;5.62;100.00;97144.44;4997623;28;20740;-83
2023/10/23 03:22:44;;;;;;;1.88;1.70;;;;;;;5.60;100.00;97139.41;4999209;28;20399;-83
2023/10/23 03:25:12;;;;;;;1.85;1.67;;;;;;;5.59;100.00;97144.88;5010733;28;20462;-79
2023/10/23 03:27:38;;;;;;;1.70;1.50;;;;;;;5.59;100.00;97144.88;5014387;28;20409;-82
2023/10/23 03:30:06;;;;;;;2.28;1.83;;;;;;;5.59;100.00;97134.38;5004479;28;20882;-83
2023/10/23 03:32:32;;;;;;;2.08;1.80;;;;;;;5.56;100.00;97138.28;5004065;28;20424;-82
2023/10/23 03:35:00;;;;;;;2.15;1.58;;;;;;;5.53;100.00;97136.09;5017275;28;20401;-82
2023/10/23 03:37:26;;;;;;;2.83;1.52;;;;;;;5.52;100.00;97136.31;5019396;28;20438;-82
2023/10/23 03:39:52;;;;;;;1.60;1.50;;;;;;;5.51;100.00;97142.59;5019823;28;20401;-83
2023/10/23 03:42:20;;;;;;;3.55;1.73;;;;;;;5.47;100.00;97139.63;5019443;28;20491;-84
2023/10/23 03:44:46;;;;;;;1.60;1.50;;;;;;;5.45;100.00;97139.03;5003219;28;20442;-83
2023/10/23 03:47:12;;;;;;;2.97;1.90;;;;;;;5.42;100.00;97140.28;4997815;28;20457;-83
2023/10/23 03:49:38;;;;;;;1.85;1.55;;;;;;;5.39;100.00;97132.88;5008751;28;20410;-81
2023/10/23 03:52:04;;;;;;;4.35;2.25;;;;;;;5.38;100.00;97141.75;5010486;28;20447;-83
2023/10/23 03:54:30;;;;;;;3.67;1.80;;;;;;;5.36;100.00;97135.94;5023646;28;20400;-82
2023/10/23 03:56:57;;;;;;;2.53;1.80;;;;;;;5.33;100.00;97136.41;5019571;28;20441;-82
2023/10/23 03:59:24;;;;;;;2.70;1.80;;;;;;;5.33;100.00;97132.97;5017223;28;20408;-83
2023/10/23 04:01:51;;;;;;;2.10;1.70;;;;;;;5.31;100.00;97133.19;5016982;28;20480;-82
2023/10/23 04:04:17;;;;;;;3.03;1.70;;;;;;;5.32;100.00;97134.00;5016882;28;20407;-81
2023/10/23 04:06:43;;;;;;;1.80;1.60;;;;;;;5.31;100.00;97129.75;5016349;28;20416;-83
2023/10/23 04:09:09;;;;;;;2.80;1.90;;;;;;;5.27;100.00;97124.16;5022711;28;20404;-81
2023/10/23 04:11:35;;;;;;;3.30;1.90;;;;;;;5.25;100.00;97122.78;5023760;28;20440;-81
2023/10/23 04:14:01;;;;;;;1.98;1.80;;;;;;;5.22;100.00;97124.03;5023576;28;20416;-80
2023/10/23 04:16:29;;;;;;;2.58;1.88;;;;;;;5.21;100.00;97124.25;5023885;28;20408;-81
2023/10/23 04:18:55;;;;;;;2.05;1.65;;;;;;;5.20;100.00;97125.25;5023809;28;20401;-82
2023/10/23 04:21:21;;;;;;;1.70;1.60;;;;;;;5.19;100.00;97121.06;5024568;28;20405;-81
2023/10/23 04:23:47;;;;;;;3.60;1.92;;;;;;;5.18;100.00;97122.06;5009971;28;20505;-80
2023/10/23 04:26:13;;;;;;;2.03;1.60;;;;;;;5.15;100.00;97117.25;5014192;28;20413;-82
2023/10/23 04:28:40;;;;;;;3.40;2.15;;;;;;;5.14;100.00;97123.53;5021339;28;20403;-81
2023/10/23 04:31:06;;;;;;;2.22;1.83;;;;;;;5.11;100.00;97114.31;5013425;28;20406;-82
2023/10/23 04:33:34;;;;;;;2.10;1.70;;;;;;;5.10;100.00;97112.69;5014820;28;20397;-82
2023/10/23 04:36:00;;;;;;;1.88;1.70;;;;;;;5.07;100.00;97107.88;5009620;28;20447;-82
2023/10/23 04:38:27;;;;;;;2.38;1.65;;;;;;;5.04;100.00;97103.06;5009570;28;20903;-82
2023/10/23 04:40:53;;;;;;;2.38;1.80;;;;;;;5.04;100.00;97111.75;5017944;28;20409;-82
2023/10/23 04:43:22;;;;;;;3.08;2.20;;;;;;;5.03;100.00;97104.91;5001256;28;21261;-81
2023/10/23 04:45:52;;;;;;;1.80;1.70;;;;;;;5.03;100.00;97117.22;5017591;28;20881;-82
2023/10/23 04:48:19;;;;;;;2.95;1.90;;;;;;;5.02;100.00;97113.81;5017172;28;20453;-82
2023/10/23 04:50:46;;;;;;;2.33;1.70;;;;;;;5.02;100.00;97105.94;5021398;28;20500;-80
2023/10/23 04:53:12;;;;;;;2.00;1.80;;;;;;;5.02;100.00;97107.75;5020134;28;20453;-80
2023/10/23 04:55:40;;;;;;;2.42;1.95;;;;;;;5.02;100.00;97102.50;5018271;28;20488;-81
2023/10/23 04:58:07;;;;;;;2.95;1.73;;;;;;;5.01;100.00;97098.28;5018893;28;20984;-78
2023/10/23 05:00:35;;;;;;;3.38;2.20;;;;;;;4.99;100.00;97105.56;5013889;28;20406;-80
2023/10/23 05:03:03;;;;;;;2.00;1.80;;;;;;;4.97;100.00;97091.88;5008535;28;20953;-79
2023/10/23 05:05:29;;;;;;;2.28;1.77;;;;;;;4.95;100.00;97094.72;4988347;28;20466;-79
2023/10/23 05:07:57;;;;;;;2.25;2.00;;;;;;;4.94;100.00;97090.50;5016795;28;20412;-80
2023/10/23 05:10:23;;;;;;;1.90;1.60;;;;;;;4.92;100.00;97089.91;5017579;28;20416;-79
2023/10/23 05:12:49;;;;;;;2.00;1.80;;;;;;;4.91;100.00;97084.91;5018367;28;20412;-79
2023/10/23 05:15:17;;;;;;;2.35;1.80;;;;;;;4.88;100.00;97087.97;5017982;28;20436;-80
2023/10/23 05:17:43;;;;;;;1.98;1.88;;;;;;;4.86;100.00;97090.81;5024795;28;20874;-79
2023/10/23 05:20:10;;;;;;;2.33;2.10;;;;;;;4.85;100.00;97097.06;5024595;28;20432;-80
2023/10/23 05:22:36;;;;;;;2.70;1.85;;;;;;;4.86;100.00;97098.69;5025359;28;20529;-79
2023/10/23 05:25:04;;;;;;;2.10;1.90;;;;;;;4.85;100.00;97098.91;5025438;28;20407;-80
2023/10/23 05:27:30;;;;;;;2.20;1.83;;;;;;;4.85;100.00;97091.03;5025624;28;20404;-80
2023/10/23 05:29:56;;;;;;;2.95;2.10;;;;;;;4.83;100.00;97087.81;5025098;28;20424;-80
2023/10/23 05:32:22;;;;;;;2.33;1.95;;;;;;;4.81;100.00;97090.66;5020511;28;20410;-80
2023/10/23 05:34:48;;;;;;;2.30;2.00;;;;;;;4.80;100.00;97088.28;5005812;28;20886;-80
2023/10/23 05:37:14;;;;;;;2.65;1.90;;;;;;;4.79;100.00;97100.59;5005852;28;20410;-79
2023/10/23 05:39:41;;;;;;;2.30;2.10;;;;;;;4.80;100.00;97093.53;5005634;28;20457;-79
2023/10/23 05:42:08;;;;;;;2.40;2.17;;;;;;;4.80;100.00;97099.56;5006648;28;20895;-80
2023/10/23 05:44:34;;;;;;;3.30;2.20;;;;;;;4.79;100.00;97100.59;5005156;28;20402;-81
2023/10/23 05:47:00;;;;;;;4.28;2.88;;;;;;;4.77;100.00;97091.34;5004493;28;20402;-82
2023/10/23 05:49:28;;;;;;;6.00;2.80;;;;;;;4.77;100.00;97107.06;5004296;28;20402;-83
2023/10/23 05:51:54;;;;;;;2.58;2.13;;;;;;;4.76;100.00;97105.47;5002178;28;20444;-81
2023/10/23 05:54:20;;;;;;;3.30;2.30;;;;;;;4.76;100.00;97121.19;4999155;28;20544;-83
2023/10/23 05:56:46;;;;;;;3.60;2.15;;;;;;;4.75;100.00;97125.63;4999185;28;20418;-82
2023/10/23 05:59:14;;;;;;;3.42;2.20;;;;;;;4.75;100.00;97122.22;4999673;28;20423;-81
2023/10/23 06:01:40;;;;;;;2.35;2.10;;;;;;;4.75;100.00;97117.78;4999352;28;20425;-81
2023/10/23 06:04:06;;;;;;;2.30;2.10;;;;;;;4.76;100.00;97122.00;5001529;28;20434;-81
2023/10/23 06:06:32;;;;;;;2.10;1.90;;;;;;;4.76;100.00;97122.00;5003700;28;20398;-82
2023/10/23 06:08:59;;;;;;;2.50;2.25;;;;;;;4.77;100.00;97117.56;5002475;28;20414;-82
2023/10/23 06:11:25;;;;;;;2.28;2.08;;;;;;;4.78;100.00;97121.78;5014787;28;20411;-85
2023/10/23 06:13:52;;;;;;;4.28;2.28;;;;;;;4.78;100.00;97119.97;5014492;28;20400;-83
2023/10/23 06:16:19;;;;;;;3.67;2.50;;;;;;;4.77;100.00;97115.75;5020558;28;20408;-80
2023/10/23 06:18:45;;;;;;;4.47;2.50;;;;;;;4.78;100.00;97119.16;5020325;28;20447;-81
2023/10/23 06:21:12;;;;;;;4.15;2.67;;;;;;;4.79;100.00;97121.56;5019179;28;20425;-81
2023/10/23 06:23:39;;;;;;;3.78;2.50;;;;;;;4.82;100.00;97122.94;5019123;28;20407;-82
2023/10/23 06:26:06;;;;;;;3.20;2.40;;;;;;;4.87;100.00;97121.28;5019194;28;20397;-82
2023/10/23 06:28:33;;;;;;;2.67;2.17;;;;;;;4.90;100.00;97122.63;5017392;28;21024;-80
2023/10/23 06:31:04;;;;;;;2.42;2.10;;;;;;;4.93;100.00;97115.13;5018245;28;20922;-83
2023/10/23 06:33:31;;;;;;;4.18;2.35;;;;;;;4.96;100.00;97114.66;5019503;28;20492;-81
2023/10/23 06:35:58;;;;;;;3.42;2.47;;;;;;;5.03;100.00;97112.00;5020870;28;20412;-81
2023/10/23 06:38:24;;;;;;;3.03;2.30;;;;;;;5.09;100.00;97111.09;5020295;28;20472;-81
2023/10/23 06:40:50;;;;;;;2.83;2.10;;;;;;;5.18;100.00;97111.59;5011900;28;20419;-81
2023/10/23 06:43:17;;;;;;;2.40;2.08;;;;;;;5.27;100.00;97108.41;5001382;28;20410;-84
2023/10/23 06:45:43;;;;;;;3.10;2.08;;;;;;;5.38;100.00;97117.34;4987006;28;20406;-83
2023/10/23 06:48:09;;;;;;;3.22;2.20;;;;;;;5.48;100.00;97116.81;5014385;28;20411;-81
2023/10/23 06:50:38;;;;;;;2.80;2.20;;;;;;;5.57;100.00;97118.06;5019049;28;20482;-81
2023/10/23 06:53:04;;;;;;;3.28;2.20;;;;;;;5.67;100.00;97123.56;5003814;28;20447;-81
2023/10/23 06:55:30;;;;;;;3.80;2.30;;;;;;;5.75;100.00;97117.97;4999279;28;20736;-79
2023/10/23 06:57:56;;;;;;;4.40;2.40;;;;;;;5.86;100.00;97108.53;5001129;28;20414;-81
2023/10/23 07:00:22;;;;;;;8.48;3.95;;;;;;;5.96;100.00;97106.13;5007129;28;20496;-82
2023/10/23 07:02:49;;;;;;;3.80;3.13;;;;;;;6.09;100.00;97104.09;5002759;28;20438;-82
2023/10/23 07:05:15;;;;;;;6.40;3.20;;;;;;;6.19;100.00;97098.25;5007478;28;20395;-85
2023/10/23 07:07:43;;;;;;;4.50;2.92;;;;;;;6.25;100.00;97091.28;5008873;28;20707;-81
2023/10/23 07:10:10;;;;;;;3.25;2.30;;;;;;;6.30;100.00;97094.03;5000392;28;20430;-81
2023/10/23 07:12:36;;;;;;;2.50;2.30;;;;;;;6.33;100.00;97091.72;5009092;28;20493;-82
2023/10/23 07:15:02;;;;;;;2.60;2.00;;;;;;;6.37;100.00;97079.72;5003080;28;20502;-82
2023/10/23 07:17:30;;;;;;;3.35;2.40;;;;;;;6.40;100.00;97087.13;5007288;28;20493;-81
2023/10/23 07:19:56;;;;;;;3.65;2.10;;;;;;;6.44;100.00;97092.75;5010698;28;20397;-82
2023/10/23 07:22:22;;;;;;;3.23;2.30;;;;;;;6.46;100.00;97091.50;5018015;28;20416;-81
2023/10/23 07:24:50;;;;;;;3.30;2.17;;;;;;;6.52;100.00;97095.81;5016521;28;20951;-82
2023/10/23 07:27:16;;;;;;;3.38;2.10;;;;;;;6.57;100.00;97085.41;5015219;28;20400;-81
2023/10/23 07:29:42;;;;;;;5.03;2.67;;;;;;;6.64;100.00;97082.63;5016867;28;20400;-81
2023/10/23 07:32:09;;;;;;;4.07;2.50;;;;;;;6.71;100.00;97077.22;5017153;28;20404;-82
2023/10/23 07:34:35;;;;;;;4.22;2.40;;;;;;;6.78;100.00;97067.38;5017789;28;20416;-84
2023/10/23 07:37:03;;;;;;;5.05;2.75;;;;;;;6.85;100.00;97063.56;5018229;28;20423;-84
2023/10/23 07:39:29;;;;;;;6.57;3.03;;;;;;;6.92;100.00;97061.59;5018493;28;20408;-82
2023/10/23 07:41:56;;;;;;;5.78;2.80;;;;;;;6.99;100.00;97059.63;5018206;28;21004;-81
2023/10/23 07:44:23;;;;;;;3.80;2.55;;;;;;;7.09;100.00;97063.47;5015559;28;20633;-81
2023/10/23 07:46:50;;;;;;;3.00;2.03;;;;;;;7.18;100.00;97067.31;5017171;28;20915;-81
2023/10/23 07:49:16;;;;;;;3.75;2.50;;;;;;;7.25;100.00;97063.50;4998388;28;20400;-81
2023/10/23 07:51:42;;;;;;;4.05;2.65;;;;;;;7.32;100.00;97065.97;5016360;28;20507;-81
2023/10/23 07:54:08;;;;;;;4.57;2.55;;;;;;;7.39;100.00;97064.78;5016838;28;20400;-81
2023/10/23 07:56:34;;;;;;;3.17;2.35;;;;;;;7.49;100.00;97063.38;5008388;28;20449;-81
2023/10/23 07:59:02;;;;;;;3.40;2.25;;;;;;;7.55;100.00;97054.50;5006338;28;20402;-83
2023/10/23 08:01:28;;;;;;;3.72;2.25;;;;;;;7.62;100.00;97055.94;5007818;28;20432;-82
2023/10/23 08:03:54;;;;;;;2.70;2.27;;;;;;;7.68;100.00;97048.91;5016534;28;20461;-80
2023/10/23 08:06:20;;;;;;;4.78;2.40;;;;;;;7.75;100.00;97049.53;5013591;28;20416;-80
2023/10/23 08:08:47;;;;;;;4.57;2.60;;;;;;;7.83;100.00;97049.13;5017681;28;20450;-80
2023/10/23 08:11:13;;;;;;;3.83;2.40;;;;;;;7.90;100.00;97041.84;5017312;28;20411;-81
2023/10/23 08:13:40;;;;;;;4.15;2.80;;;;;;;7.98;100.00;97038.81;5014303;28;20413;-80
2023/10/23 08:16:07;;;;;;;3.22;2.58;;;;;;;8.07;100.00;97039.19;4996656;28;20412;-82
2023/10/23 08:18:34;;;;;;;5.53;2.55;;;;;;;8.14;100.00;97032.72;5025742;28;20488;-81
2023/10/23 08:21:06;;;;;;;4.70;2.95;;;;;;;8.21;100.00;97021.19;5022761;28;20408;-80
2023/10/23 08:23:32;;;;;;;4.00;2.80;;;;;;;8.28;100.00;97029.72;5001839;28;20874;-80
2023/10/23 08:25:58;;;;;;;3.72;2.70;;;;;;;8.32;100.00;97029.03;5005589;28;20503;-81
2023/10/23 08:28:25;;;;;;;6.82;2.90;;;;;;;8.38;100.00;97035.94;5005257;28;20453;-82
2023/10/23 08:30:51;;;;;;;6.40;3.00;;;;;;;8.42;100.00;97033.63;5004272;28;20407;-82
2023/10/23 08:33:19;;;;;;;7.68;3.53;;;;;;;8.46;100.00;97035.53;5010651;28;20436;-82
2023/10/23 08:35:45;;;;;;;5.85;3.10;;;;;;;8.51;100.00;97038.22;5004273;28;20413;-82
2023/10/23 08:38:12;;;;;;;6.28;3.20;;;;;;;8.57;100.00;97033.78;5007838;28;20433;-84
2023/10/23 08:40:38;;;;;;;5.18;3.28;;;;;;;8.65;100.00;97043.91;5004176;28;20923;-83
2023/10/23 08:43:05;;;;;;;4.90;2.80;;;;;;;8.76;100.00;97053.53;5007910;28;20956;-82
2023/10/23 08:45:32;;;;;;;5.63;2.70;;;;;;;8.87;100.00;97049.94;5008304;28;20396;-83
2023/10/23 08:47:58;;;;;;;5.10;3.33;;;;;;;8.98;100.00;97053.50;4997779;28;20414;-81
2023/10/23 08:50:27;;;;;;;6.05;3.30;;;;;;;9.00;100.00;97040.88;4996335;28;20410;-82
2023/10/23 08:52:58;;;;;;;4.37;2.90;;;;;;;9.06;100.00;97039.06;5015055;28;20451;-82
2023/10/23 08:55:26;;;;;;;7.78;2.88;;;;;;;9.08;100.00;97036.97;5016146;28;20410;-83
2023/10/23 08:57:54;;;;;;;5.10;3.08;;;;;;;9.13;100.00;97037.81;5000543;28;20456;-82
2023/10/23 09:00:22;;;;;;;7.13;2.80;;;;;;;9.15;100.00;97037.56;5000002;28;20457;-82
2023/10/23 09:02:49;;;;;;;5.68;2.88;;;;;;;9.20;100.00;97037.63;5014158;28;20493;-82
2023/10/23 09:05:15;;;;;;;4.60;2.90;;;;;;;9.24;100.00;97025.50;5016760;28;20418;-81
2023/10/23 09:07:43;;;;;;;4.05;2.65;;;;;;;9.30;100.00;97029.78;5012420;28;20428;-82
2023/10/23 09:10:09;;;;;;;3.17;2.30;;;;;;;9.34;100.00;97025.59;5002499;28;20406;-82
2023/10/23 09:12:37;;;;;;;6.72;2.10;;;;;;;9.41;100.00;97012.97;5022550;28;20416;-82
2023/10/23 09:15:16;;;;;;;3.15;1.80;;;;;;;9.47;100.00;97014.59;5017930;28;20894;-83
2023/10/23 09:17:43;;;;;;;2.47;1.92;;;;;;;9.53;100.00;97010.16;5014733;28;20430;-81
2023/10/23 09:20:22;;;;;;;2.05;1.70;;;;;;;9.58;100.00;97004.91;5000450;28;20430;-84
2023/10/23 09:22:52;;;;;;;4.18;2.20;;;;;;;9.62;100.00;97013.94;5001212;28;20430;-84
2023/10/23 09:25:19;;;;;;;3.13;2.10;;;;;;;9.65;100.00;97008.91;5000613;28;20837;-83
2023/10/23 09:27:45;;;;;;;3.90;2.20;;;;;;;9.69;100.00;97011.88;5001291;28;20465;-82
2023/10/23 09:30:13;;;;;;;2.45;1.73;;;;;;;9.72;100.00;97013.97;5000870;28;20398;-84
2023/10/23 09:32:40;;;;;;;2.88;2.22;;;;;;;9.73;100.00;97007.66;5004133;28;20518;-83
2023/10/23 09:35:10;;;;;;;2.85;1.98;;;;;;;9.74;100.00;97008.44;5006420;28;20783;-81
2023/10/23 09:37:36;;;;;;;3.75;2.13;;;;;;;9.76;100.00;97012.44;5010087;28;20461;-81
2023/10/23 09:40:08;;;;;;;4.25;2.25;;;;;;;9.78;100.00;97018.25;5011225;28;20449;-82
2023/10/23 09:42:34;;;;;;;2.42;1.92;;;;;;;9.80;100.00;97028.56;5012340;28;20421;-82
2023/10/23 09:45:02;;;;;;;3.53;1.98;;;;;;;9.81;100.00;97028.31;5008115;28;20416;-82
2023/10/23 09:47:29;;;;;;;2.85;2.08;;;;;;;9.84;100.00;97027.03;4985899;28;20414;-81
2023/10/23 09:49:56;;;;;;;3.42;2.00;;;;;;;9.85;100.00;97025.97;5000022;28;20456;-84
2023/10/23 09:52:24;;;;;;;3.08;1.90;;;;;;;9.85;100.00;97024.09;5006576;28;20439;-81
2023/10/23 09:54:56;;;;;;;3.25;2.35;;;;;;;9.86;100.00;97035.47;5011684;28;20497;-82
2023/10/23 09:57:32;;;;;;;3.83;2.17;;;;;;;9.83;100.00;97031.50;5008140;28;20418;-81
2023/10/23 10:00:05;;;;;;;2.72;2.00;;;;;;;9.84;100.00;97038.41;5023976;28;20429;-80
2023/10/23 10:02:35;;;;;;;2.55;1.90;;;;;;;9.85;100.00;97031.28;5029344;28;20429;-80
2023/10/23 10:05:05;;;;;;;2.97;2.20;;;;;;;9.86;100.00;97025.69;5018086;28;20437;-82
2023/10/23 10:07:39;;;;;;;2.80;2.23;;;;;;;9.90;100.00;97026.00;5013597;28;20414;-81
2023/10/23 10:10:08;;;;;;;3.20;2.00;;;;;;;9.94;100.00;97019.94;5015770;28;20769;-80
2023/10/23 10:12:38;;;;;;;3.42;2.55;;;;;;;9.99;100.00;97005.97;5018014;28;20420;-80
2023/10/23 10:15:08;;;;;;;4.40;1.88;;;;;;;10.04;100.00;97013.91;5013162;28;20410;-81
2023/10/23 10:17:36;;;;;;;3.07;2.00;;;;;;;10.10;100.00;97003.09;5012399;28;20401;-79
2023/10/23 10:20:05;;;;;;;1.95;1.73;;;;;;;10.19;100.00;97002.66;5017650;28;20475;-82
2023/10/23 10:22:34;;;;;;;4.05;1.88;;;;;;;10.27;100.00;96999.53;5006525;28;20493;-80
2023/10/23 10:25:01;;;;;;;4.18;1.90;;;;;;;10.33;100.00;96996.63;5028435;28;20394;-81
2023/10/23 10:27:27;;;;;;;2.47;1.40;;;;;;;10.40;100.00;96993.75;5027719;28;20481;-81
2023/10/23 10:29:55;;;;;;;3.00;1.92;;;;;;;10.46;100.00;96995.34;5022467;28;20400;-81
2023/10/23 10:32:23;;;;;;;2.45;1.77;;;;;;;10.47;100.00;96992.44;5014751;28;20976;-81
2023/10/23 10:34:52;;;;;;;4.07;1.87;;;;;;;10.50;100.00;96979.75;5015717;28;20569;-81
2023/10/23 10:37:22;;;;;;;2.80;1.73;;;;;;;10.53;100.00;96973.94;5007742;28;20449;-80
2023/10/23 10:40:05;;;;;;;3.42;1.73;;;;;;;10.56;100.00;96968.94;5019443;28;20492;-80
2023/10/23 10:42:38;;;;;;;3.08;1.85;;;;;;;10.59;100.00;96964.97;5009863;28;20435;-80
2023/10/23 10:45:15;;;;;;;2.97;1.70;;;;;;;10.62;100.00;96967.88;4998321;28;20419;-80
2023/10/23 10:47:48;;;;;;;3.47;1.90;;;;;;;10.63;100.00;96966.81;5000655;28;20488;-81
2023/10/23 10:50:33;;;;;;;2.80;1.90;;;;;;;10.65;100.00;96955.97;5011020;28;20752;-81
2023/10/23 10:53:04;;;;;;;2.80;1.48;;;;;;;10.67;100.00;96957.31;5002761;28;20406;-82
2023/10/23 10:55:30;;;;;;;2.70;1.85;;;;;;;10.71;100.00;96954.94;4998872;28;20755;-83
2023/10/23 10:57:57;;;;;;;2.92;1.70;;;;;;;10.77;100.00;96940.66;5012430;28;20415;-81
2023/10/23 11:00:28;;;;;;;3.47;2.30;;;;;;;10.81;100.00;96939.06;5014129;28;20863;-82
2023/10/23 11:02:55;;;;;;;2.95;1.88;;;;;;;10.86;100.00;96939.06;4985526;28;20973;-82
2023/10/23 11:05:21;;;;;;;2.77;2.30;;;;;;;10.92;100.00;96939.88;5021538;28;20873;-83
2023/10/23 11:07:50;;;;;;;5.15;2.30;;;;;;;10.97;100.00;96932.75;5014154;28;20407;-82
2023/10/23 11:10:16;;;;;;;4.38;2.58;;;;;;;10.99;100.00;96925.31;5017535;28;20937;-82
2023/10/23 11:12:42;;;;;;;4.78;2.40;;;;;;;11.01;100.00;96919.75;5018418;28;20425;-81
2023/10/23 11:15:09;;;;;;;3.97;2.55;;;;;;;11.02;100.00;96911.53;5018084;28;20515;-81
2023/10/23 11:17:37;;;;;;;4.10;2.30;;;;;;;11.02;100.00;96908.09;5017581;28;20447;-81
2023/10/23 11:20:06;;;;;;;4.22;2.78;;;;;;;11.01;100.00;96904.66;5018027;28;20397;-81
2023/10/23 11:22:32;;;;;;;3.33;2.28;;;;;;;11.01;100.00;96886.13;5017433;28;20420;-81
2023/10/23 11:24:58;;;;;;;3.85;2.42;;;;;;;11.02;100.00;96884.25;5018133;28;20404;-82
2023/10/23 11:27:25;;;;;;;3.67;2.58;;;;;;;11.03;100.00;96883.22;5018778;28;20400;-81
2023/10/23 11:29:52;;;;;;;4.32;2.42;;;;;;;11.05;100.00;96870.50;5017049;28;20419;-81
2023/10/23 11:32:18;;;;;;;4.87;2.70;;;;;;;11.07;100.00;96874.44;5017718;28;20484;-82